sensor_id;sensor_type;location;lat;lon;timestamp;P1;P2;P0
30342;PMS5003;17145;49.902;8.680;2023-08-06T00:01:59;2;2;
30342;PMS5003;17145;49.902;8.680;2023-08-06T00:04:27;2;2;
30342;PMS5003;17145;49.902;8.680;2023-08-06T00:06:54;4;4;
30342;PMS5003;17145;49.902;8.680;2023-08-06T00:09:21;6;6;
30342;PMS5003;17145;49.902;8.680;2023-08-06T00:11:49;2;2;
30342;PMS5003;17145;49.902;8.680;2023-08-06T00:14:17;2;2;
30342;PMS5003;17145;49.902;8.680;2023-08-06T00:16:44;2;2;
30342;PMS5003;17145;49.902;8.680;2023-08-06T00:19:11;2;2;
30342;PMS5003;17145;49.902;8.680;2023-08-06T00:21:39;2;1;
30342;PMS5003;17145;49.902;8.680;2023-08-06T00:24:07;2;2;
30342;PMS5003;17145;49.902;8.680;2023-08-06T00:26:34;2;2;
30342;PMS5003;17145;49.902;8.680;2023-08-06T00:29:02;1;1;
30342;PMS5003;17145;49.902;8.680;2023-08-06T00:31:29;2;2;
30342;PMS5003;17145;49.902;8.680;2023-08-06T00:33:56;1;1;
30342;PMS5003;17145;49.902;8.680;2023-08-06T00:36:24;2;1;
30342;PMS5003;17145;49.902;8.680;2023-08-06T00:38:51;2;2;
30342;PMS5003;17145;49.902;8.680;2023-08-06T00:41:19;1;1;
30342;PMS5003;17145;49.902;8.680;2023-08-06T00:43:46;2;2;
30342;PMS5003;17145;49.902;8.680;2023-08-06T00:46:13;2;2;
30342;PMS5003;17145;49.902;8.680;2023-08-06T00:48:41;2;2;
30342;PMS5003;17145;49.902;8.680;2023-08-06T00:51:09;1;1;
30342;PMS5003;17145;49.902;8.680;2023-08-06T00:53:38;2;2;
30342;PMS5003;17145;49.902;8.680;2023-08-06T00:56:06;1;1;
30342;PMS5003;17145;49.902;8.680;2023-08-06T00:58:34;1;1;
30342;PMS5003;17145;49.902;8.680;2023-08-06T01:01:03;1;1;
30342;PMS5003;17145;49.902;8.680;2023-08-06T01:03:30;1;1;
30342;PMS5003;17145;49.902;8.680;2023-08-06T01:05:58;1;1;
30342;PMS5003;17145;49.902;8.680;2023-08-06T01:08:30;1;1;
30342;PMS5003;17145;49.902;8.680;2023-08-06T01:11:07;3;2;
30342;PMS5003;17145;49.902;8.680;2023-08-06T01:13:45;2;1;
30342;PMS5003;17145;49.902;8.680;2023-08-06T01:16:14;2;1;
30342;PMS5003;17145;49.902;8.680;2023-08-06T01:18:43;2;2;
30342;PMS5003;17145;49.902;8.680;2023-08-06T01:21:13;1;1;
30342;PMS5003;17145;49.902;8.680;2023-08-06T01:23:41;2;2;
30342;PMS5003;17145;49.902;8.680;2023-08-06T01:26:11;1;1;
30342;PMS5003;17145;49.902;8.680;2023-08-06T01:28:47;2;2;
30342;PMS5003;17145;49.902;8.680;2023-08-06T01:31:21;2;2;
30342;PMS5003;17145;49.902;8.680;2023-08-06T01:33:51;1;1;
30342;PMS5003;17145;49.902;8.680;2023-08-06T01:36:20;1;1;
30342;PMS5003;17145;49.902;8.680;2023-08-06T01:38:48;1;1;
30342;PMS5003;17145;49.902;8.680;2023-08-06T01:41:17;1;1;
30342;PMS5003;17145;49.902;8.680;2023-08-06T01:43:45;1;1;
30342;PMS5003;17145;49.902;8.680;2023-08-06T01:46:12;2;2;
30342;PMS5003;17145;49.902;8.680;2023-08-06T01:48:40;2;2;
30342;PMS5003;17145;49.902;8.680;2023-08-06T01:51:07;2;1;
30342;PMS5003;17145;49.902;8.680;2023-08-06T01:53:34;1;1;
30342;PMS5003;17145;49.902;8.680;2023-08-06T01:56:02;0;0;
30342;PMS5003;17145;49.902;8.680;2023-08-06T01:58:29;1;1;
30342;PMS5003;17145;49.902;8.680;2023-08-06T02:00:57;2;1;
30342;PMS5003;17145;49.902;8.680;2023-08-06T02:03:24;2;2;
30342;PMS5003;17145;49.902;8.680;2023-08-06T02:05:52;0;0;
30342;PMS5003;17145;49.902;8.680;2023-08-06T02:08:19;1;1;
30342;PMS5003;17145;49.902;8.680;2023-08-06T02:10:47;1;1;
30342;PMS5003;17145;49.902;8.680;2023-08-06T02:13:14;2;1;
30342;PMS5003;17145;49.902;8.680;2023-08-06T02:15:42;2;2;
30342;PMS5003;17145;49.902;8.680;2023-08-06T02:18:10;1;1;
30342;PMS5003;17145;49.902;8.680;2023-08-06T02:20:38;1;1;
30342;PMS5003;17145;49.902;8.680;2023-08-06T02:23:05;1;1;
30342;PMS5003;17145;49.902;8.680;2023-08-06T02:25:32;2;2;
30342;PMS5003;17145;49.902;8.680;2023-08-06T02:28:00;2;2;
30342;PMS5003;17145;49.902;8.680;2023-08-06T02:30:28;1;1;
30342;PMS5003;17145;49.902;8.680;2023-08-06T02:32:55;1;1;
30342;PMS5003;17145;49.902;8.680;2023-08-06T02:35:22;0;0;
30342;PMS5003;17145;49.902;8.680;2023-08-06T02:37:50;2;2;
30342;PMS5003;17145;49.902;8.680;2023-08-06T02:40:17;2;2;
30342;PMS5003;17145;49.902;8.680;2023-08-06T02:42:45;2;2;
30342;PMS5003;17145;49.902;8.680;2023-08-06T02:45:12;2;2;
30342;PMS5003;17145;49.902;8.680;2023-08-06T02:47:39;2;2;
30342;PMS5003;17145;49.902;8.680;2023-08-06T02:50:07;1;1;
30342;PMS5003;17145;49.902;8.680;2023-08-06T02:52:35;1;1;
30342;PMS5003;17145;49.902;8.680;2023-08-06T02:55:02;1;1;
30342;PMS5003;17145;49.902;8.680;2023-08-06T02:57:30;1;1;
30342;PMS5003;17145;49.902;8.680;2023-08-06T02:59:57;1;1;
30342;PMS5003;17145;49.902;8.680;2023-08-06T03:02:25;1;1;
30342;PMS5003;17145;49.902;8.680;2023-08-06T03:04:52;2;1;
30342;PMS5003;17145;49.902;8.680;2023-08-06T03:07:20;1;1;
30342;PMS5003;17145;49.902;8.680;2023-08-06T03:09:47;1;1;
30342;PMS5003;17145;49.902;8.680;2023-08-06T03:12:15;3;2;
30342;PMS5003;17145;49.902;8.680;2023-08-06T03:14:42;1;1;
30342;PMS5003;17145;49.902;8.680;2023-08-06T03:17:10;2;2;
30342;PMS5003;17145;49.902;8.680;2023-08-06T03:19:37;1;1;
30342;PMS5003;17145;49.902;8.680;2023-08-06T03:22:05;1;1;
30342;PMS5003;17145;49.902;8.680;2023-08-06T03:24:32;2;2;
30342;PMS5003;17145;49.902;8.680;2023-08-06T03:27:00;1;1;
30342;PMS5003;17145;49.902;8.680;2023-08-06T03:29:27;1;1;
30342;PMS5003;17145;49.902;8.680;2023-08-06T03:31:54;1;1;
30342;PMS5003;17145;49.902;8.680;2023-08-06T03:34:22;3;3;
30342;PMS5003;17145;49.902;8.680;2023-08-06T03:36:49;2;1;
30342;PMS5003;17145;49.902;8.680;2023-08-06T03:39:16;3;2;
30342;PMS5003;17145;49.902;8.680;2023-08-06T03:41:44;2;2;
30342;PMS5003;17145;49.902;8.680;2023-08-06T03:44:11;1;1;
30342;PMS5003;17145;49.902;8.680;2023-08-06T03:46:39;2;2;
30342;PMS5003;17145;49.902;8.680;2023-08-06T03:49:06;3;2;
30342;PMS5003;17145;49.902;8.680;2023-08-06T03:51:34;8;8;
30342;PMS5003;17145;49.902;8.680;2023-08-06T03:54:01;7;7;
30342;PMS5003;17145;49.902;8.680;2023-08-06T03:56:29;2;2;
30342;PMS5003;17145;49.902;8.680;2023-08-06T03:58:56;2;2;
30342;PMS5003;17145;49.902;8.680;2023-08-06T04:01:24;2;2;
30342;PMS5003;17145;49.902;8.680;2023-08-06T04:03:51;2;2;
30342;PMS5003;17145;49.902;8.680;2023-08-06T04:06:19;2;2;
30342;PMS5003;17145;49.902;8.680;2023-08-06T04:08:46;4;2;
30342;PMS5003;17145;49.902;8.680;2023-08-06T04:11:13;3;3;
30342;PMS5003;17145;49.902;8.680;2023-08-06T04:13:42;2;2;
30342;PMS5003;17145;49.902;8.680;2023-08-06T04:16:09;3;3;
30342;PMS5003;17145;49.902;8.680;2023-08-06T04:18:37;2;2;
30342;PMS5003;17145;49.902;8.680;2023-08-06T04:21:04;2;2;
30342;PMS5003;17145;49.902;8.680;2023-08-06T04:23:31;3;2;
30342;PMS5003;17145;49.902;8.680;2023-08-06T04:25:59;3;3;
30342;PMS5003;17145;49.902;8.680;2023-08-06T04:28:26;1;1;
30342;PMS5003;17145;49.902;8.680;2023-08-06T04:30:54;2;2;
30342;PMS5003;17145;49.902;8.680;2023-08-06T04:33:21;2;2;
30342;PMS5003;17145;49.902;8.680;2023-08-06T04:35:53;2;2;
30342;PMS5003;17145;49.902;8.680;2023-08-06T04:38:22;3;3;
30342;PMS5003;17145;49.902;8.680;2023-08-06T04:40:50;2;2;
30342;PMS5003;17145;49.902;8.680;2023-08-06T04:43:17;2;2;
30342;PMS5003;17145;49.902;8.680;2023-08-06T04:45:46;3;3;
30342;PMS5003;17145;49.902;8.680;2023-08-06T04:48:14;3;3;
30342;PMS5003;17145;49.902;8.680;2023-08-06T04:50:43;3;2;
30342;PMS5003;17145;49.902;8.680;2023-08-06T04:53:11;3;3;
30342;PMS5003;17145;49.902;8.680;2023-08-06T04:55:38;2;2;
30342;PMS5003;17145;49.902;8.680;2023-08-06T04:58:05;3;3;
30342;PMS5003;17145;49.902;8.680;2023-08-06T05:00:33;2;2;
30342;PMS5003;17145;49.902;8.680;2023-08-06T05:03:00;7;7;
30342;PMS5003;17145;49.902;8.680;2023-08-06T05:05:29;2;2;
30342;PMS5003;17145;49.902;8.680;2023-08-06T05:07:56;3;3;
30342;PMS5003;17145;49.902;8.680;2023-08-06T05:10:25;3;3;
30342;PMS5003;17145;49.902;8.680;2023-08-06T05:12:52;4;4;
30342;PMS5003;17145;49.902;8.680;2023-08-06T05:15:20;4;4;
30342;PMS5003;17145;49.902;8.680;2023-08-06T05:17:47;4;4;
30342;PMS5003;17145;49.902;8.680;2023-08-06T05:20:15;4;4;
30342;PMS5003;17145;49.902;8.680;2023-08-06T05:22:42;3;3;
30342;PMS5003;17145;49.902;8.680;2023-08-06T05:25:12;4;4;
30342;PMS5003;17145;49.902;8.680;2023-08-06T05:27:41;3;3;
30342;PMS5003;17145;49.902;8.680;2023-08-06T05:30:09;2;2;
30342;PMS5003;17145;49.902;8.680;2023-08-06T05:32:37;3;3;
30342;PMS5003;17145;49.902;8.680;2023-08-06T05:35:05;3;3;
30342;PMS5003;17145;49.902;8.680;2023-08-06T05:37:33;3;3;
30342;PMS5003;17145;49.902;8.680;2023-08-06T05:40:00;2;2;
30342;PMS5003;17145;49.902;8.680;2023-08-06T05:42:28;3;3;
30342;PMS5003;17145;49.902;8.680;2023-08-06T05:44:55;2;2;
30342;PMS5003;17145;49.902;8.680;2023-08-06T05:47:22;2;2;
30342;PMS5003;17145;49.902;8.680;2023-08-06T05:49:50;3;3;
30342;PMS5003;17145;49.902;8.680;2023-08-06T05:52:19;2;2;
30342;PMS5003;17145;49.902;8.680;2023-08-06T05:54:46;2;2;
30342;PMS5003;17145;49.902;8.680;2023-08-06T05:57:14;2;2;
30342;PMS5003;17145;49.902;8.680;2023-08-06T05:59:41;2;2;
30342;PMS5003;17145;49.902;8.680;2023-08-06T06:02:09;2;2;
30342;PMS5003;17145;49.902;8.680;2023-08-06T06:04:36;4;4;
30342;PMS5003;17145;49.902;8.680;2023-08-06T06:07:04;2;2;
30342;PMS5003;17145;49.902;8.680;2023-08-06T06:09:31;2;2;
30342;PMS5003;17145;49.902;8.680;2023-08-06T06:11:59;1;1;
30342;PMS5003;17145;49.902;8.680;2023-08-06T06:14:26;2;2;
30342;PMS5003;17145;49.902;8.680;2023-08-06T06:16:53;2;2;
30342;PMS5003;17145;49.902;8.680;2023-08-06T06:19:21;2;2;
30342;PMS5003;17145;49.902;8.680;2023-08-06T06:21:49;2;2;
30342;PMS5003;17145;49.902;8.680;2023-08-06T06:24:16;2;2;
30342;PMS5003;17145;49.902;8.680;2023-08-06T06:26:43;2;2;
30342;PMS5003;17145;49.902;8.680;2023-08-06T06:29:10;1;1;
30342;PMS5003;17145;49.902;8.680;2023-08-06T06:31:38;4;3;
30342;PMS5003;17145;49.902;8.680;2023-08-06T06:34:05;3;3;
30342;PMS5003;17145;49.902;8.680;2023-08-06T06:36:32;3;3;
30342;PMS5003;17145;49.902;8.680;2023-08-06T06:39:00;4;3;
30342;PMS5003;17145;49.902;8.680;2023-08-06T06:41:27;3;3;
30342;PMS5003;17145;49.902;8.680;2023-08-06T06:43:54;3;3;
30342;PMS5003;17145;49.902;8.680;2023-08-06T06:46:22;5;4;
30342;PMS5003;17145;49.902;8.680;2023-08-06T06:48:49;3;2;
30342;PMS5003;17145;49.902;8.680;2023-08-06T06:51:17;3;3;
30342;PMS5003;17145;49.902;8.680;2023-08-06T06:56:31;3;2;
30342;PMS5003;17145;49.902;8.680;2023-08-06T06:58:58;3;3;
30342;PMS5003;17145;49.902;8.680;2023-08-06T07:01:25;3;3;
30342;PMS5003;17145;49.902;8.680;2023-08-06T07:03:53;2;2;
30342;PMS5003;17145;49.902;8.680;2023-08-06T07:06:20;3;3;
30342;PMS5003;17145;49.902;8.680;2023-08-06T07:12:15;3;3;
30342;PMS5003;17145;49.902;8.680;2023-08-06T07:14:47;3;3;
30342;PMS5003;17145;49.902;8.680;2023-08-06T07:17:15;3;3;
30342;PMS5003;17145;49.902;8.680;2023-08-06T07:19:42;2;2;
30342;PMS5003;17145;49.902;8.680;2023-08-06T07:22:09;3;3;
30342;PMS5003;17145;49.902;8.680;2023-08-06T07:24:37;2;2;
30342;PMS5003;17145;49.902;8.680;2023-08-06T07:27:04;3;3;
30342;PMS5003;17145;49.902;8.680;2023-08-06T07:29:32;2;1;
30342;PMS5003;17145;49.902;8.680;2023-08-06T07:32:00;3;2;
30342;PMS5003;17145;49.902;8.680;2023-08-06T07:34:28;3;3;
30342;PMS5003;17145;49.902;8.680;2023-08-06T07:36:55;2;2;
30342;PMS5003;17145;49.902;8.680;2023-08-06T07:39:22;2;2;
30342;PMS5003;17145;49.902;8.680;2023-08-06T07:41:50;3;3;
30342;PMS5003;17145;49.902;8.680;2023-08-06T07:44:17;5;5;
30342;PMS5003;17145;49.902;8.680;2023-08-06T07:46:45;7;7;
30342;PMS5003;17145;49.902;8.680;2023-08-06T07:49:12;10;10;
30342;PMS5003;17145;49.902;8.680;2023-08-06T07:51:40;11;10;
30342;PMS5003;17145;49.902;8.680;2023-08-06T07:54:07;14;14;
30342;PMS5003;17145;49.902;8.680;2023-08-06T07:56:35;15;14;
30342;PMS5003;17145;49.902;8.680;2023-08-06T07:59:02;15;14;
30342;PMS5003;17145;49.902;8.680;2023-08-06T08:01:30;13;13;
30342;PMS5003;17145;49.902;8.680;2023-08-06T08:03:57;7;7;
30342;PMS5003;17145;49.902;8.680;2023-08-06T08:06:24;3;3;
30342;PMS5003;17145;49.902;8.680;2023-08-06T08:08:52;4;3;
30342;PMS5003;17145;49.902;8.680;2023-08-06T08:11:20;3;3;
30342;PMS5003;17145;49.902;8.680;2023-08-06T08:13:47;2;2;
30342;PMS5003;17145;49.902;8.680;2023-08-06T08:16:15;2;2;
30342;PMS5003;17145;49.902;8.680;2023-08-06T08:18:42;4;4;
30342;PMS5003;17145;49.902;8.680;2023-08-06T08:21:09;3;3;
30342;PMS5003;17145;49.902;8.680;2023-08-06T08:23:37;3;3;
30342;PMS5003;17145;49.902;8.680;2023-08-06T08:26:04;4;3;
30342;PMS5003;17145;49.902;8.680;2023-08-06T08:28:31;3;3;
30342;PMS5003;17145;49.902;8.680;2023-08-06T08:30:59;3;2;
30342;PMS5003;17145;49.902;8.680;2023-08-06T08:33:26;4;4;
30342;PMS5003;17145;49.902;8.680;2023-08-06T08:35:54;3;3;
30342;PMS5003;17145;49.902;8.680;2023-08-06T08:38:21;3;3;
30342;PMS5003;17145;49.902;8.680;2023-08-06T08:40:50;2;2;
30342;PMS5003;17145;49.902;8.680;2023-08-06T08:43:21;2;2;
30342;PMS5003;17145;49.902;8.680;2023-08-06T08:45:49;3;3;
30342;PMS5003;17145;49.902;8.680;2023-08-06T08:48:18;2;2;
30342;PMS5003;17145;49.902;8.680;2023-08-06T08:50:47;3;3;
30342;PMS5003;17145;49.902;8.680;2023-08-06T08:53:16;3;3;
30342;PMS5003;17145;49.902;8.680;2023-08-06T08:55:47;3;3;
30342;PMS5003;17145;49.902;8.680;2023-08-06T08:58:16;3;3;
30342;PMS5003;17145;49.902;8.680;2023-08-06T09:00:44;2;2;
30342;PMS5003;17145;49.902;8.680;2023-08-06T09:03:13;2;2;
30342;PMS5003;17145;49.902;8.680;2023-08-06T09:05:41;3;3;
30342;PMS5003;17145;49.902;8.680;2023-08-06T09:08:11;2;2;
30342;PMS5003;17145;49.902;8.680;2023-08-06T09:10:42;3;3;
30342;PMS5003;17145;49.902;8.680;2023-08-06T09:13:10;3;3;
30342;PMS5003;17145;49.902;8.680;2023-08-06T09:15:38;2;2;
30342;PMS5003;17145;49.902;8.680;2023-08-06T09:18:09;3;2;
30342;PMS5003;17145;49.902;8.680;2023-08-06T09:20:37;3;3;
30342;PMS5003;17145;49.902;8.680;2023-08-06T09:23:07;3;3;
30342;PMS5003;17145;49.902;8.680;2023-08-06T09:25:36;4;2;
30342;PMS5003;17145;49.902;8.680;2023-08-06T09:28:05;2;2;
30342;PMS5003;17145;49.902;8.680;2023-08-06T09:30:33;3;3;
30342;PMS5003;17145;49.902;8.680;2023-08-06T09:33:02;3;3;
30342;PMS5003;17145;49.902;8.680;2023-08-06T09:35:34;4;4;
30342;PMS5003;17145;49.902;8.680;2023-08-06T09:38:05;3;3;
30342;PMS5003;17145;49.902;8.680;2023-08-06T09:40:33;3;3;
30342;PMS5003;17145;49.902;8.680;2023-08-06T09:43:01;3;3;
30342;PMS5003;17145;49.902;8.680;2023-08-06T09:45:30;4;3;
30342;PMS5003;17145;49.902;8.680;2023-08-06T09:47:58;3;2;
30342;PMS5003;17145;49.902;8.680;2023-08-06T09:50:28;3;3;
30342;PMS5003;17145;49.902;8.680;2023-08-06T09:52:57;3;2;
30342;PMS5003;17145;49.902;8.680;2023-08-06T09:55:25;3;3;
30342;PMS5003;17145;49.902;8.680;2023-08-06T09:57:53;3;3;
30342;PMS5003;17145;49.902;8.680;2023-08-06T10:00:22;3;3;
30342;PMS5003;17145;49.902;8.680;2023-08-06T10:02:50;3;3;
30342;PMS5003;17145;49.902;8.680;2023-08-06T10:05:19;4;4;
30342;PMS5003;17145;49.902;8.680;2023-08-06T10:07:47;2;2;
30342;PMS5003;17145;49.902;8.680;2023-08-06T10:10:16;4;4;
30342;PMS5003;17145;49.902;8.680;2023-08-06T10:12:44;3;3;
30342;PMS5003;17145;49.902;8.680;2023-08-06T10:15:16;2;2;
30342;PMS5003;17145;49.902;8.680;2023-08-06T10:17:47;3;3;
30342;PMS5003;17145;49.902;8.680;2023-08-06T10:20:18;4;4;
30342;PMS5003;17145;49.902;8.680;2023-08-06T10:22:45;4;4;
30342;PMS5003;17145;49.902;8.680;2023-08-06T10:25:18;4;4;
30342;PMS5003;17145;49.902;8.680;2023-08-06T10:30:21;3;3;
30342;PMS5003;17145;49.902;8.680;2023-08-06T10:32:51;3;3;
30342;PMS5003;17145;49.902;8.680;2023-08-06T10:35:28;5;4;
30342;PMS5003;17145;49.902;8.680;2023-08-06T10:37:58;3;3;
30342;PMS5003;17145;49.902;8.680;2023-08-06T10:40:29;4;4;
30342;PMS5003;17145;49.902;8.680;2023-08-06T10:42:58;3;3;
30342;PMS5003;17145;49.902;8.680;2023-08-06T10:45:26;4;4;
30342;PMS5003;17145;49.902;8.680;2023-08-06T10:47:54;3;3;
30342;PMS5003;17145;49.902;8.680;2023-08-06T10:50:22;4;3;
30342;PMS5003;17145;49.902;8.680;2023-08-06T10:52:49;3;3;
30342;PMS5003;17145;49.902;8.680;2023-08-06T10:55:23;5;4;
30342;PMS5003;17145;49.902;8.680;2023-08-06T10:57:51;3;3;
30342;PMS5003;17145;49.902;8.680;2023-08-06T11:00:18;3;3;
30342;PMS5003;17145;49.902;8.680;2023-08-06T11:02:48;3;3;
30342;PMS5003;17145;49.902;8.680;2023-08-06T11:05:16;4;4;
30342;PMS5003;17145;49.902;8.680;2023-08-06T11:07:44;5;5;
30342;PMS5003;17145;49.902;8.680;2023-08-06T11:10:12;4;4;
30342;PMS5003;17145;49.902;8.680;2023-08-06T11:12:40;4;4;
30342;PMS5003;17145;49.902;8.680;2023-08-06T11:15:08;4;4;
30342;PMS5003;17145;49.902;8.680;2023-08-06T11:17:36;4;4;
30342;PMS5003;17145;49.902;8.680;2023-08-06T11:20:06;3;3;
30342;PMS5003;17145;49.902;8.680;2023-08-06T11:22:34;3;3;
30342;PMS5003;17145;49.902;8.680;2023-08-06T11:25:03;4;4;
30342;PMS5003;17145;49.902;8.680;2023-08-06T11:27:32;3;3;
30342;PMS5003;17145;49.902;8.680;2023-08-06T11:29:59;4;4;
30342;PMS5003;17145;49.902;8.680;2023-08-06T11:32:27;4;4;
30342;PMS5003;17145;49.902;8.680;2023-08-06T11:34:55;4;4;
30342;PMS5003;17145;49.902;8.680;2023-08-06T11:37:23;3;3;
30342;PMS5003;17145;49.902;8.680;2023-08-06T11:39:50;5;4;
30342;PMS5003;17145;49.902;8.680;2023-08-06T11:42:18;3;3;
30342;PMS5003;17145;49.902;8.680;2023-08-06T11:44:46;3;3;
30342;PMS5003;17145;49.902;8.680;2023-08-06T11:47:15;4;4;
30342;PMS5003;17145;49.902;8.680;2023-08-06T11:49:44;4;3;
30342;PMS5003;17145;49.902;8.680;2023-08-06T11:52:14;4;4;
30342;PMS5003;17145;49.902;8.680;2023-08-06T11:54:43;3;3;
30342;PMS5003;17145;49.902;8.680;2023-08-06T11:57:10;4;4;
30342;PMS5003;17145;49.902;8.680;2023-08-06T11:59:39;3;3;
30342;PMS5003;17145;49.902;8.680;2023-08-06T12:02:08;3;3;
30342;PMS5003;17145;49.902;8.680;2023-08-06T12:07:25;3;3;
30342;PMS5003;17145;49.902;8.680;2023-08-06T12:09:54;5;4;
30342;PMS5003;17145;49.902;8.680;2023-08-06T12:12:21;3;3;
30342;PMS5003;17145;49.902;8.680;2023-08-06T12:14:48;4;3;
30342;PMS5003;17145;49.902;8.680;2023-08-06T12:17:16;3;3;
30342;PMS5003;17145;49.902;8.680;2023-08-06T12:19:44;4;4;
30342;PMS5003;17145;49.902;8.680;2023-08-06T12:22:11;5;4;
30342;PMS5003;17145;49.902;8.680;2023-08-06T12:24:39;4;4;
30342;PMS5003;17145;49.902;8.680;2023-08-06T12:27:07;4;4;
30342;PMS5003;17145;49.902;8.680;2023-08-06T12:29:35;5;4;
30342;PMS5003;17145;49.902;8.680;2023-08-06T12:32:03;4;4;
30342;PMS5003;17145;49.902;8.680;2023-08-06T12:34:30;5;5;
30342;PMS5003;17145;49.902;8.680;2023-08-06T12:36:58;5;4;
30342;PMS5003;17145;49.902;8.680;2023-08-06T12:39:25;4;4;
30342;PMS5003;17145;49.902;8.680;2023-08-06T12:41:53;3;3;
30342;PMS5003;17145;49.902;8.680;2023-08-06T12:44:20;5;4;
30342;PMS5003;17145;49.902;8.680;2023-08-06T12:46:47;5;4;
30342;PMS5003;17145;49.902;8.680;2023-08-06T12:49:15;5;5;
30342;PMS5003;17145;49.902;8.680;2023-08-06T12:51:42;6;5;
30342;PMS5003;17145;49.902;8.680;2023-08-06T12:54:09;4;4;
30342;PMS5003;17145;49.902;8.680;2023-08-06T12:56:37;5;5;
30342;PMS5003;17145;49.902;8.680;2023-08-06T12:59:04;4;4;
30342;PMS5003;17145;49.902;8.680;2023-08-06T13:01:32;6;6;
30342;PMS5003;17145;49.902;8.680;2023-08-06T13:03:59;9;9;
30342;PMS5003;17145;49.902;8.680;2023-08-06T13:06:27;15;14;
30342;PMS5003;17145;49.902;8.680;2023-08-06T13:08:54;13;13;
30342;PMS5003;17145;49.902;8.680;2023-08-06T13:11:22;14;14;
30342;PMS5003;17145;49.902;8.680;2023-08-06T13:13:50;12;12;
30342;PMS5003;17145;49.902;8.680;2023-08-06T13:16:17;12;12;
30342;PMS5003;17145;49.902;8.680;2023-08-06T13:18:44;19;19;
30342;PMS5003;17145;49.902;8.680;2023-08-06T13:21:12;21;21;
30342;PMS5003;17145;49.902;8.680;2023-08-06T13:23:40;21;20;
30342;PMS5003;17145;49.902;8.680;2023-08-06T13:26:07;22;22;
30342;PMS5003;17145;49.902;8.680;2023-08-06T13:28:35;16;16;
30342;PMS5003;17145;49.902;8.680;2023-08-06T13:31:02;11;11;
30342;PMS5003;17145;49.902;8.680;2023-08-06T13:33:30;16;15;
30342;PMS5003;17145;49.902;8.680;2023-08-06T13:35:57;20;20;
30342;PMS5003;17145;49.902;8.680;2023-08-06T13:38:25;21;21;
30342;PMS5003;17145;49.902;8.680;2023-08-06T13:40:52;33;33;
30342;PMS5003;17145;49.902;8.680;2023-08-06T13:43:20;33;33;
30342;PMS5003;17145;49.902;8.680;2023-08-06T13:45:47;33;32;
30342;PMS5003;17145;49.902;8.680;2023-08-06T13:48:15;22;22;
30342;PMS5003;17145;49.902;8.680;2023-08-06T13:50:43;24;23;
30342;PMS5003;17145;49.902;8.680;2023-08-06T13:53:10;18;18;
30342;PMS5003;17145;49.902;8.680;2023-08-06T13:55:37;16;14;
30342;PMS5003;17145;49.902;8.680;2023-08-06T13:58:05;26;25;
30342;PMS5003;17145;49.902;8.680;2023-08-06T14:00:32;32;32;
30342;PMS5003;17145;49.902;8.680;2023-08-06T14:03:00;29;29;
30342;PMS5003;17145;49.902;8.680;2023-08-06T14:05:27;39;39;
30342;PMS5003;17145;49.902;8.680;2023-08-06T14:07:54;21;21;
30342;PMS5003;17145;49.902;8.680;2023-08-06T14:10:22;32;32;
30342;PMS5003;17145;49.902;8.680;2023-08-06T14:12:49;27;27;
30342;PMS5003;17145;49.902;8.680;2023-08-06T14:15:16;19;19;
30342;PMS5003;17145;49.902;8.680;2023-08-06T14:17:44;12;12;
30342;PMS5003;17145;49.902;8.680;2023-08-06T14:20:11;9;9;
30342;PMS5003;17145;49.902;8.680;2023-08-06T14:22:39;12;12;
30342;PMS5003;17145;49.902;8.680;2023-08-06T14:25:06;15;15;
30342;PMS5003;17145;49.902;8.680;2023-08-06T14:27:34;21;21;
30342;PMS5003;17145;49.902;8.680;2023-08-06T14:30:02;15;15;
30342;PMS5003;17145;49.902;8.680;2023-08-06T14:32:30;8;8;
30342;PMS5003;17145;49.902;8.680;2023-08-06T14:34:57;5;5;
30342;PMS5003;17145;49.902;8.680;2023-08-06T14:37:25;7;6;
30342;PMS5003;17145;49.902;8.680;2023-08-06T14:39:52;5;5;
30342;PMS5003;17145;49.902;8.680;2023-08-06T14:42:19;6;6;
30342;PMS5003;17145;49.902;8.680;2023-08-06T14:44:47;5;5;
30342;PMS5003;17145;49.902;8.680;2023-08-06T14:47:15;5;5;
30342;PMS5003;17145;49.902;8.680;2023-08-06T14:49:42;6;5;
30342;PMS5003;17145;49.902;8.680;2023-08-06T14:52:09;4;4;
30342;PMS5003;17145;49.902;8.680;2023-08-06T14:54:37;5;5;
30342;PMS5003;17145;49.902;8.680;2023-08-06T14:57:04;7;7;
30342;PMS5003;17145;49.902;8.680;2023-08-06T14:59:32;7;7;
30342;PMS5003;17145;49.902;8.680;2023-08-06T15:01:59;7;6;
30342;PMS5003;17145;49.902;8.680;2023-08-06T15:04:26;5;5;
30342;PMS5003;17145;49.902;8.680;2023-08-06T15:06:54;4;4;
30342;PMS5003;17145;49.902;8.680;2023-08-06T15:09:21;8;7;
30342;PMS5003;17145;49.902;8.680;2023-08-06T15:11:49;7;7;
30342;PMS5003;17145;49.902;8.680;2023-08-06T15:14:16;6;6;
30342;PMS5003;17145;49.902;8.680;2023-08-06T15:16:46;5;5;
30342;PMS5003;17145;49.902;8.680;2023-08-06T15:19:13;6;5;
30342;PMS5003;17145;49.902;8.680;2023-08-06T15:21:41;6;6;
30342;PMS5003;17145;49.902;8.680;2023-08-06T15:24:08;7;6;
30342;PMS5003;17145;49.902;8.680;2023-08-06T15:26:36;7;7;
30342;PMS5003;17145;49.902;8.680;2023-08-06T15:29:03;6;6;
30342;PMS5003;17145;49.902;8.680;2023-08-06T15:31:35;5;5;
30342;PMS5003;17145;49.902;8.680;2023-08-06T15:34:04;4;4;
30342;PMS5003;17145;49.902;8.680;2023-08-06T15:36:32;6;6;
30342;PMS5003;17145;49.902;8.680;2023-08-06T15:38:59;7;6;
30342;PMS5003;17145;49.902;8.680;2023-08-06T15:41:27;5;4;
30342;PMS5003;17145;49.902;8.680;2023-08-06T15:43:54;5;5;
30342;PMS5003;17145;49.902;8.680;2023-08-06T15:46:22;4;4;
30342;PMS5003;17145;49.902;8.680;2023-08-06T15:48:49;7;7;
30342;PMS5003;17145;49.902;8.680;2023-08-06T15:51:16;7;6;
30342;PMS5003;17145;49.902;8.680;2023-08-06T15:53:44;7;7;
30342;PMS5003;17145;49.902;8.680;2023-08-06T15:56:11;7;6;
30342;PMS5003;17145;49.902;8.680;2023-08-06T15:58:39;7;7;
30342;PMS5003;17145;49.902;8.680;2023-08-06T16:01:06;6;6;
30342;PMS5003;17145;49.902;8.680;2023-08-06T16:03:34;6;5;
30342;PMS5003;17145;49.902;8.680;2023-08-06T16:06:01;4;4;
30342;PMS5003;17145;49.902;8.680;2023-08-06T16:08:28;4;4;
30342;PMS5003;17145;49.902;8.680;2023-08-06T16:10:56;6;5;
30342;PMS5003;17145;49.902;8.680;2023-08-06T16:13:23;5;5;
30342;PMS5003;17145;49.902;8.680;2023-08-06T16:15:51;5;5;
30342;PMS5003;17145;49.902;8.680;2023-08-06T16:18:18;5;5;
30342;PMS5003;17145;49.902;8.680;2023-08-06T16:20:46;7;6;
30342;PMS5003;17145;49.902;8.680;2023-08-06T16:23:13;6;6;
30342;PMS5003;17145;49.902;8.680;2023-08-06T16:25:41;7;6;
30342;PMS5003;17145;49.902;8.680;2023-08-06T16:28:08;5;5;
30342;PMS5003;17145;49.902;8.680;2023-08-06T16:30:36;6;5;
30342;PMS5003;17145;49.902;8.680;2023-08-06T16:33:08;7;6;
30342;PMS5003;17145;49.902;8.680;2023-08-06T16:35:35;4;4;
30342;PMS5003;17145;49.902;8.680;2023-08-06T16:38:03;5;5;
30342;PMS5003;17145;49.902;8.680;2023-08-06T16:40:30;4;4;
30342;PMS5003;17145;49.902;8.680;2023-08-06T16:42:57;4;4;
30342;PMS5003;17145;49.902;8.680;2023-08-06T16:45:25;3;3;
30342;PMS5003;17145;49.902;8.680;2023-08-06T16:47:52;4;4;
30342;PMS5003;17145;49.902;8.680;2023-08-06T16:50:19;5;5;
30342;PMS5003;17145;49.902;8.680;2023-08-06T16:52:47;4;4;
30342;PMS5003;17145;49.902;8.680;2023-08-06T16:55:14;4;4;
30342;PMS5003;17145;49.902;8.680;2023-08-06T16:57:42;5;5;
30342;PMS5003;17145;49.902;8.680;2023-08-06T17:00:09;4;4;
30342;PMS5003;17145;49.902;8.680;2023-08-06T17:02:37;3;3;
30342;PMS5003;17145;49.902;8.680;2023-08-06T17:05:05;4;4;